createdAt,value
2022-11-15T00:04:37.554Z,12.90
2022-11-15T00:09:43.397Z,13.17
2022-11-15T00:14:49.489Z,12.43
2022-11-15T00:19:51.866Z,12.77
2022-11-15T00:24:53.751Z,12.10
2022-11-15T00:29:56.796Z,12.87
2022-11-15T00:34:59.167Z,11.07
2022-11-15T00:40:00.903Z,13.23
2022-11-15T00:45:04.759Z,13.67
2022-11-15T00:50:12.958Z,13.13
2022-11-15T00:55:18.563Z,12.87
2022-11-15T01:00:21.704Z,11.20
2022-11-15T01:05:24.066Z,12.20
2022-11-15T01:10:26.165Z,12.10
2022-11-15T01:15:29.612Z,11.50
2022-11-15T01:20:31.739Z,12.37
2022-11-15T01:25:33.875Z,12.33
2022-11-15T01:30:38.446Z,12.93
2022-11-15T01:35:40.967Z,11.63
2022-11-15T01:40:43.114Z,11.70
2022-11-15T01:45:50.163Z,12.33
2022-11-15T01:50:52.387Z,12.73
2022-11-15T01:55:55.118Z,12.30
2022-11-15T02:00:58.238Z,12.83
2022-11-15T02:06:00.724Z,11.13
2022-11-15T02:11:05.436Z,13.20
2022-11-15T02:16:19.352Z,13.43
2022-11-15T02:21:34.832Z,11.63
2022-11-15T02:27:10.092Z,13.93
2022-11-15T02:32:20.590Z,11.37
2022-11-15T02:37:31.998Z,13.53
2022-11-15T02:42:38.158Z,14.10
2022-11-15T02:47:44.634Z,14.80
2022-11-15T02:52:47.613Z,15.23
2022-11-15T02:57:56.844Z,14.27
2022-11-15T03:03:20.632Z,18.30
2022-11-15T03:08:32.610Z,16.43
2022-11-15T03:13:40.699Z,16.67
2022-11-15T03:18:47.360Z,16.93
2022-11-15T03:23:52.224Z,16.37
2022-11-15T03:28:58.853Z,18.80
2022-11-15T03:34:06.410Z,16.17
2022-11-15T03:39:10.198Z,15.83
2022-11-15T03:44:17.761Z,15.37
2022-11-15T03:49:26.978Z,16.37
2022-11-15T03:54:29.393Z,15.13
2022-11-15T03:59:31.679Z,16.03
2022-11-15T04:04:35.273Z,16.00
2022-11-15T04:09:37.134Z,14.83
2022-11-15T04:14:39.218Z,15.80
2022-11-15T04:19:42.807Z,17.03
2022-11-15T04:24:45.185Z,15.73
2022-11-15T04:29:47.494Z,16.67
2022-11-15T04:34:50.962Z,15.67
2022-11-15T04:39:53.095Z,14.63
2022-11-15T04:44:55.144Z,16.10
2022-11-15T04:49:58.695Z,15.77
2022-11-15T04:55:06.735Z,16.17
2022-11-15T05:00:14.100Z,14.63
2022-11-15T05:05:17.869Z,15.43
2022-11-15T05:10:20.143Z,14.97
2022-11-15T05:15:22.370Z,13.60
2022-11-15T05:20:25.709Z,13.60
2022-11-15T05:25:28.576Z,14.30
2022-11-15T05:30:31.567Z,14.10
2022-11-15T05:35:39.969Z,14.37
2022-11-15T05:40:42.236Z,14.30
2022-11-15T05:45:44.116Z,14.60
2022-11-15T05:50:48.693Z,15.13
2022-11-15T05:55:51.176Z,15.67
2022-11-15T06:00:53.128Z,14.07
2022-11-15T06:05:57.614Z,15.13
2022-11-15T06:11:04.955Z,13.77
2022-11-15T06:16:07.373Z,14.43
2022-11-15T06:21:10.785Z,13.33
2022-11-15T06:26:12.806Z,12.47
2022-11-15T06:31:15.115Z,14.67
2022-11-15T06:36:18.626Z,14.07
2022-11-15T06:41:20.731Z,13.60
2022-11-15T06:46:22.921Z,14.63
2022-11-15T06:51:26.451Z,13.67
2022-11-15T06:56:28.193Z,12.97
2022-11-15T07:01:30.656Z,14.10
2022-11-15T07:06:34.318Z,13.33
2022-11-15T07:11:36.569Z,15.20
2022-11-15T07:16:38.632Z,15.70
2022-11-15T07:21:42.162Z,14.37
2022-11-15T07:26:44.496Z,14.07
2022-11-15T07:31:46.644Z,15.47
2022-11-15T07:36:49.944Z,13.97
2022-11-15T07:41:51.948Z,15.47
2022-11-15T07:46:54.205Z,14.47
2022-11-15T07:51:57.567Z,15.10
2022-11-15T07:57:04.042Z,15.00
2022-11-15T08:02:10.531Z,13.93
2022-11-15T08:07:14.475Z,15.07
2022-11-15T08:12:16.649Z,14.97
2022-11-15T08:17:18.823Z,13.53
2022-11-15T08:22:22.519Z,13.17
2022-11-15T08:27:24.919Z,13.83
2022-11-15T08:32:27.109Z,15.53
2022-11-15T08:37:30.707Z,14.60
2022-11-15T08:42:32.458Z,15.07
2022-11-15T08:47:35.389Z,15.23
2022-11-15T08:52:38.848Z,16.50
2022-11-15T08:57:41.293Z,16.10
2022-11-15T09:02:43.397Z,16.43
2022-11-15T09:07:47.096Z,17.47
2022-11-15T09:12:49.361Z,15.00
2022-11-15T09:17:51.493Z,15.30
2022-11-15T09:22:55.003Z,14.43
2022-11-15T09:27:58.178Z,13.80
2022-11-15T09:33:00.336Z,11.70
2022-11-15T09:38:04.695Z,11.63
2022-11-15T09:43:21.175Z,10.60
2022-11-15T09:48:43.922Z,9.70
2022-11-15T09:59:26.018Z,7.93
2022-11-15T10:04:29.051Z,7.10
2022-11-15T10:09:39.209Z,6.13
2022-11-15T10:14:43.000Z,5.60
2022-11-15T10:19:56.570Z,6.03
2022-11-15T10:25:15.936Z,5.60
2022-11-15T10:30:19.651Z,6.53
2022-11-15T10:35:26.079Z,6.17
2022-11-15T10:40:29.605Z,5.27
2022-11-15T10:45:34.131Z,4.87
2022-11-15T10:50:35.805Z,5.90
2022-11-15T10:55:41.813Z,5.73
2022-11-15T11:00:43.856Z,5.80
2022-11-15T11:05:46.079Z,5.10
2022-11-15T11:11:01.339Z,6.03
2022-11-15T11:16:20.571Z,5.23
2022-11-15T11:21:36.778Z,5.33
2022-11-15T11:26:57.103Z,5.67
2022-11-15T11:32:08.976Z,6.10
2022-11-15T11:37:19.319Z,5.63
2022-11-15T11:42:34.944Z,5.57
2022-11-15T11:47:41.465Z,4.80
2022-11-15T11:52:54.021Z,5.43
2022-11-15T11:58:06.004Z,4.67
2022-11-15T12:03:13.910Z,4.47
2022-11-15T12:08:30.521Z,4.90
2022-11-15T12:13:35.947Z,4.50
2022-11-15T12:18:38.358Z,5.23
2022-11-15T12:23:45.171Z,4.33
2022-11-15T12:29:06.919Z,3.90
2022-11-15T12:34:41.671Z,4.30
2022-11-15T12:40:06.221Z,4.40
2022-11-15T12:45:27.751Z,3.97
2022-11-15T12:50:55.133Z,3.80
2022-11-15T12:56:19.093Z,3.70
2022-11-15T13:02:11.781Z,3.60
2022-11-15T13:07:58.781Z,3.60
2022-11-15T13:13:02.629Z,3.70
2022-11-15T13:18:41.235Z,3.73
2022-11-15T13:23:46.767Z,3.43
2022-11-15T13:28:50.866Z,3.30
2022-11-15T13:33:56.123Z,2.90
2022-11-15T13:39:03.080Z,3.27
2022-11-15T13:44:19.986Z,3.37
2022-11-15T13:49:30.967Z,3.47
2022-11-15T13:54:37.745Z,3.30
2022-11-15T13:59:47.719Z,3.50
2022-11-15T14:04:52.863Z,3.00
2022-11-15T14:09:56.389Z,3.03
2022-11-15T14:14:59.383Z,3.33
2022-11-15T14:20:01.907Z,3.60
2022-11-15T14:25:16.471Z,3.50
2022-11-15T14:30:19.097Z,3.97
2022-11-15T14:35:23.556Z,3.57
2022-11-15T14:40:27.454Z,3.90
2022-11-15T14:45:29.879Z,4.43
2022-11-15T14:50:34.034Z,3.93
2022-11-15T14:55:37.481Z,3.60
2022-11-15T15:00:41.863Z,3.87
2022-11-15T15:05:45.278Z,3.67
2022-11-15T15:10:48.975Z,3.83
2022-11-15T15:15:52.034Z,3.97
2022-11-15T15:20:57.338Z,5.30
2022-11-15T15:26:00.919Z,6.13
2022-11-15T15:31:03.092Z,6.83
2022-11-15T15:36:05.491Z,7.00
2022-11-15T15:41:11.961Z,7.53
2022-11-15T15:46:16.536Z,7.10
2022-11-15T15:51:20.693Z,7.83
2022-11-15T15:56:25.093Z,7.60
2022-11-15T16:01:27.535Z,7.40
2022-11-15T16:06:36.978Z,6.87
2022-11-15T16:11:40.511Z,7.87
2022-11-15T16:16:42.278Z,8.30
2022-11-15T16:21:44.377Z,8.17
2022-11-15T16:26:48.807Z,7.63
2022-11-15T16:31:50.907Z,8.53
2022-11-15T16:36:54.218Z,7.80
2022-11-15T16:41:57.685Z,7.63
2022-11-15T16:47:00.896Z,8.37
2022-11-15T16:52:02.600Z,7.63
2022-11-15T16:57:05.847Z,8.87
2022-11-15T17:02:12.172Z,9.00
2022-11-15T17:07:13.965Z,8.43
2022-11-15T17:12:17.109Z,8.20
2022-11-15T17:17:19.021Z,8.03
2022-11-15T17:22:21.242Z,7.53
2022-11-15T17:27:24.754Z,7.87
2022-11-15T17:32:26.743Z,8.27
2022-11-15T17:37:28.582Z,8.60
2022-11-15T17:42:32.017Z,8.87
2022-11-15T17:47:34.010Z,8.87
2022-11-15T17:52:35.723Z,8.40
2022-11-15T17:57:38.961Z,8.27
2022-11-15T18:02:40.976Z,9.50
2022-11-15T18:07:42.780Z,9.20
2022-11-15T18:12:45.844Z,9.50
2022-11-15T18:17:47.684Z,9.27
2022-11-15T18:22:52.545Z,8.77
2022-11-15T18:27:56.016Z,8.97
2022-11-15T18:32:58.227Z,8.17
2022-11-15T18:37:59.968Z,8.63
2022-11-15T18:43:03.804Z,9.93
2022-11-15T18:48:06.113Z,10.93
2022-11-15T18:53:07.925Z,11.27
2022-11-15T18:58:11.059Z,11.67
2022-11-15T19:03:12.864Z,11.03
2022-11-15T19:08:14.588Z,12.33
2022-11-15T19:13:18.414Z,12.57
2022-11-15T19:18:20.755Z,13.80
2022-11-15T19:23:23.156Z,13.13
2022-11-15T19:28:27.111Z,15.37
2022-11-15T19:33:28.785Z,14.87
2022-11-15T19:38:31.176Z,14.57
2022-11-15T19:43:35.580Z,15.53
2022-11-15T19:48:38.179Z,18.73
2022-11-15T19:53:40.703Z,17.90
2022-11-15T19:58:45.675Z,17.93
2022-11-15T20:03:48.177Z,18.90
2022-11-15T20:08:50.391Z,18.37
2022-11-15T20:13:56.455Z,17.97
2022-11-15T20:18:58.350Z,18.60
2022-11-15T20:24:00.267Z,20.60
2022-11-15T20:29:04.038Z,20.03
2022-11-15T20:34:06.696Z,19.67
2022-11-15T20:39:09.174Z,19.60
2022-11-15T20:44:13.020Z,20.20
2022-11-15T20:49:14.841Z,21.63
2022-11-15T20:54:16.910Z,22.43
2022-11-15T20:59:20.128Z,22.70
2022-11-15T21:04:23.438Z,21.23
2022-11-15T21:09:25.773Z,23.27
2022-11-15T21:14:29.202Z,23.23
2022-11-15T21:19:35.586Z,22.73
2022-11-15T21:24:39.053Z,21.17
2022-11-15T21:29:42.567Z,21.83
2022-11-15T21:34:44.692Z,22.80
2022-11-15T21:39:46.762Z,21.27
2022-11-15T21:44:50.513Z,21.23
2022-11-15T21:49:52.335Z,21.37
2022-11-15T21:54:54.374Z,19.43
2022-11-15T21:59:57.427Z,21.00
2022-11-15T22:04:59.773Z,20.80
2022-11-15T22:10:01.649Z,18.97
2022-11-15T22:15:05.783Z,19.63
2022-11-15T22:20:29.967Z,20.23
2022-11-15T22:25:31.181Z,20.03
2022-11-15T22:30:34.838Z,20.20
2022-11-15T22:35:38.417Z,18.67
2022-11-15T22:40:40.409Z,20.67
2022-11-15T22:45:52.134Z,21.13
2022-11-15T22:50:54.842Z,19.17
2022-11-15T22:55:58.553Z,18.30
2022-11-15T23:01:04.114Z,21.37
2022-11-15T23:06:07.665Z,19.93
2022-11-15T23:11:11.433Z,19.67
2022-11-15T23:16:14.890Z,19.13
2022-11-15T23:21:18.858Z,19.60
2022-11-15T23:26:21.483Z,20.37
2022-11-15T23:31:25.213Z,19.10
2022-11-15T23:36:29.033Z,18.13
2022-11-15T23:41:31.166Z,18.77
2022-11-15T23:46:35.197Z,19.90
2022-11-15T23:51:37.348Z,19.23
2022-11-15T23:56:39.878Z,19.70
